Time;durP1;ratioP1;P1;durP2;ratioP2;P2;SDS_P1;SDS_P2;PMS_P1;PMS_P2;Temp;Humidity;BMP_temperature;BMP_pressure;BME280_temperature;BME280_humidity;BME280_pressure;Samples;Min_cycle;Max_cycle;Signal;HPM_P1;HPM_P2
2024/03/04 00:01:20;;;;;;;34.55;16.48;;;;;;;;;;5103932;28;20368;-52
2024/03/04 00:03:46;;;;;;;33.15;15.73;;;;;;;;;;5106941;28;20379;-53
2024/03/04 00:06:12;;;;;;;33.40;16.40;;;;;;;;;;5091912;28;20039;-54
2024/03/04 00:08:38;;;;;;;28.58;15.57;;;;;;;;;;5088473;28;20071;-54
2024/03/04 00:11:04;;;;;;;37.78;16.70;;;;;;;;;;5091477;28;20028;-51
2024/03/04 00:13:30;;;;;;;34.70;16.73;;;;;;;;;;5091047;28;20422;-52
2024/03/04 00:15:57;;;;;;;29.55;15.13;;;;;;;;;;5091224;28;20476;-52
2024/03/04 00:18:23;;;;;;;30.98;15.20;;;;;;;;;;4996118;28;2270229;-55
2024/03/04 00:20:49;;;;;;;31.63;16.05;;;;;;;;;;5096481;28;20040;-52
2024/03/04 00:23:16;;;;;;;34.83;15.77;;;;;;;;;;5091523;28;20169;-52
2024/03/04 00:25:42;;;;;;;30.88;15.77;;;;;;;;;;5093443;28;20020;-54
2024/03/04 00:28:09;;;;;;;35.83;17.10;;;;;;;;;;5094007;28;20491;-54
2024/03/04 00:30:35;;;;;;;34.17;16.88;;;;;;;;;;5090368;28;20028;-52
2024/03/04 00:33:02;;;;;;;35.70;16.42;;;;;;;;;;5087513;28;20027;-52
2024/03/04 00:35:28;;;;;;;28.67;15.38;;;;;;;;;;5091725;28;20032;-53
2024/03/04 00:37:54;;;;;;;29.83;15.38;;;;;;;;;;5091616;28;20050;-54
2024/03/04 00:40:20;;;;;;;27.13;13.73;;;;;;;;;;5089617;28;20035;-53
2024/03/04 00:42:47;;;;;;;29.00;12.95;;;;;;;;;;5084400;28;20047;-53
2024/03/04 00:45:13;;;;;;;23.13;12.40;;;;;;;;;;5092053;28;20046;-53
2024/03/04 00:47:39;;;;;;;25.65;12.52;;;;;;;;;;5079291;28;20496;-52
2024/03/04 00:50:06;;;;;;;29.95;15.48;;;;;;;;;;5086478;28;20115;-53
2024/03/04 00:52:32;;;;;;;34.58;16.90;;;;;;;;;;5107309;28;20089;-52
2024/03/04 00:54:58;;;;;;;34.10;16.17;;;;;;;;;;5094320;28;20024;-54
2024/03/04 00:57:23;;;;;;;36.78;16.67;;;;;;;;;;5091553;28;20028;-54
2024/03/04 00:59:49;;;;;;;32.35;15.73;;;;;;;;;;5091454;28;20032;-54
2024/03/04 01:02:15;;;;;;;31.98;16.17;;;;;;;;;;5088874;28;20086;-54
2024/03/04 01:04:43;;;;;;;38.28;15.88;;;;;;;;;;5089570;28;20046;-53
2024/03/04 01:07:09;;;;;;;33.53;16.08;;;;;;;;;;5091643;28;20036;-52
2024/03/04 01:09:35;;;;;;;35.55;16.55;;;;;;;;;;5088034;28;20028;-54
2024/03/04 01:12:01;;;;;;;36.25;17.25;;;;;;;;;;5086637;28;20032;-51
2024/03/04 01:14:27;;;;;;;35.22;16.23;;;;;;;;;;5106165;28;20020;-53
2024/03/04 01:16:53;;;;;;;36.30;17.52;;;;;;;;;;5087599;28;20028;-53
2024/03/04 01:19:20;;;;;;;38.10;16.77;;;;;;;;;;5085427;28;20027;-54
2024/03/04 01:21:47;;;;;;;33.83;16.40;;;;;;;;;;5079643;28;20040;-54
2024/03/04 01:24:15;;;;;;;42.20;18.35;;;;;;;;;;5094030;28;20074;-53
2024/03/04 01:26:41;;;;;;;35.22;16.92;;;;;;;;;;5094836;28;20495;-53
2024/03/04 01:29:09;;;;;;;36.88;16.60;;;;;;;;;;5094498;28;20031;-54
2024/03/04 01:31:35;;;;;;;31.88;16.17;;;;;;;;;;5071221;28;20112;-53
2024/03/04 01:34:02;;;;;;;36.65;17.15;;;;;;;;;;5065809;28;20025;-55
2024/03/04 01:36:29;;;;;;;35.03;16.38;;;;;;;;;;5079066;28;20028;-52
2024/03/04 01:38:55;;;;;;;31.55;13.63;;;;;;;;;;5084104;28;20031;-53
2024/03/04 01:41:21;;;;;;;28.10;14.90;;;;;;;;;;5081289;28;20024;-53
2024/03/04 01:43:47;;;;;;;27.20;13.30;;;;;;;;;;5093320;28;20396;-54
2024/03/04 01:46:13;;;;;;;27.90;13.63;;;;;;;;;;5094476;28;20028;-54
2024/03/04 01:48:39;;;;;;;32.30;16.48;;;;;;;;;;5077667;28;20033;-53
2024/03/04 01:51:06;;;;;;;27.08;15.48;;;;;;;;;;5082715;28;20031;-53
2024/03/04 01:53:33;;;;;;;31.48;15.30;;;;;;;;;;5075844;28;20039;-53
2024/03/04 01:56:03;;;;;;;26.98;13.95;;;;;;;;;;5085841;28;20032;-54
2024/03/04 01:58:30;;;;;;;26.48;13.93;;;;;;;;;;5093285;28;20082;-52
2024/03/04 02:00:59;;;;;;;28.80;14.85;;;;;;;;;;5094580;28;20028;-54
2024/03/04 02:03:25;;;;;;;29.00;14.52;;;;;;;;;;5092958;28;20032;-54
2024/03/04 02:05:51;;;;;;;27.88;14.05;;;;;;;;;;5082931;28;20035;-54
2024/03/04 02:08:19;;;;;;;34.60;15.45;;;;;;;;;;5079093;28;20033;-55
2024/03/04 02:10:47;;;;;;;31.25;15.45;;;;;;;;;;5073548;28;20029;-55
2024/03/04 02:13:13;;;;;;;31.35;16.25;;;;;;;;;;5075370;28;20040;-55
2024/03/04 02:15:39;;;;;;;30.35;14.95;;;;;;;;;;5078094;28;20305;-55
2024/03/04 02:18:06;;;;;;;39.42;16.08;;;;;;;;;;5074877;28;20055;-55
2024/03/04 02:20:33;;;;;;;29.42;15.23;;;;;;;;;;5088138;28;20028;-56
2024/03/04 02:22:59;;;;;;;39.05;16.88;;;;;;;;;;5073601;28;20093;-55
2024/03/04 02:25:33;;;;;;;33.92;16.10;;;;;;;;;;5073873;28;20432;-55
2024/03/04 02:27:59;;;;;;;30.85;16.02;;;;;;;;;;5083047;28;20024;-55
2024/03/04 02:30:25;;;;;;;33.58;16.45;;;;;;;;;;5073169;28;20035;-55
2024/03/04 02:32:51;;;;;;;27.80;13.95;;;;;;;;;;5076530;28;20384;-55
2024/03/04 02:35:17;;;;;;;32.35;16.63;;;;;;;;;;5087164;28;20038;-55
2024/03/04 02:37:44;;;;;;;37.55;18.15;;;;;;;;;;5079929;28;20033;-55
2024/03/04 02:40:11;;;;;;;30.25;15.48;;;;;;;;;;5073141;28;20536;-54
2024/03/04 02:42:38;;;;;;;33.35;16.55;;;;;;;;;;5072945;28;20032;-55
2024/03/04 02:45:05;;;;;;;31.60;15.50;;;;;;;;;;5077472;28;20020;-55
2024/03/04 02:47:31;;;;;;;26.08;15.25;;;;;;;;;;5075308;28;20480;-54
2024/03/04 02:49:57;;;;;;;26.70;14.25;;;;;;;;;;5073397;28;20029;-55
2024/03/04 02:52:23;;;;;;;26.75;13.23;;;;;;;;;;5074345;28;20031;-55
2024/03/04 02:54:49;;;;;;;33.22;14.93;;;;;;;;;;5082803;28;20026;-50
2024/03/04 02:57:16;;;;;;;32.20;16.30;;;;;;;;;;5073027;28;20110;-54
2024/03/04 02:59:42;;;;;;;32.30;16.60;;;;;;;;;;5075553;28;20460;-55
2024/03/04 03:02:08;;;;;;;39.75;17.73;;;;;;;;;;5086510;28;20392;-55
2024/03/04 03:04:34;;;;;;;39.50;17.98;;;;;;;;;;5080598;28;20028;-54
2024/03/04 03:07:00;;;;;;;36.85;16.90;;;;;;;;;;5080550;28;20024;-58
2024/03/04 03:09:26;;;;;;;37.50;18.23;;;;;;;;;;5088372;28;20028;-57
2024/03/04 03:11:54;;;;;;;43.35;18.70;;;;;;;;;;5077944;28;20025;-57
2024/03/04 03:14:20;;;;;;;39.03;18.80;;;;;;;;;;5081648;28;20031;-57
2024/03/04 03:16:46;;;;;;;43.65;19.73;;;;;;;;;;5083604;28;20025;-57
2024/03/04 03:19:23;;;;;;;38.97;18.55;;;;;;;;;;5079672;28;20074;-57
2024/03/04 03:21:49;;;;;;;40.58;19.55;;;;;;;;;;5049446;28;20071;-57
2024/03/04 03:24:15;;;;;;;46.75;20.42;;;;;;;;;;5089890;28;20024;-58
2024/03/04 03:26:41;;;;;;;46.22;21.17;;;;;;;;;;5085972;28;20024;-57
2024/03/04 03:29:07;;;;;;;39.72;21.60;;;;;;;;;;5091397;28;20434;-57
2024/03/04 03:31:33;;;;;;;48.83;23.02;;;;;;;;;;5092526;28;20064;-58
2024/03/04 03:33:58;;;;;;;46.33;21.60;;;;;;;;;;5091524;28;20051;-57
2024/03/04 03:36:24;;;;;;;47.58;22.77;;;;;;;;;;5092423;28;20027;-55
2024/03/04 03:38:51;;;;;;;46.88;23.27;;;;;;;;;;5071827;28;20142;-58
2024/03/04 03:41:17;;;;;;;48.00;24.10;;;;;;;;;;5090403;28;20106;-58
2024/03/04 03:43:43;;;;;;;51.35;24.55;;;;;;;;;;5084519;28;20028;-58
2024/03/04 03:46:10;;;;;;;48.67;23.40;;;;;;;;;;5092422;28;20115;-57
2024/03/04 03:48:36;;;;;;;42.33;22.10;;;;;;;;;;5089587;28;20387;-58
2024/03/04 03:51:02;;;;;;;49.65;23.48;;;;;;;;;;5092008;28;20028;-57
2024/03/04 03:53:28;;;;;;;48.03;23.45;;;;;;;;;;5075893;28;20122;-57
2024/03/04 03:55:54;;;;;;;53.92;24.10;;;;;;;;;;5058922;28;20077;-57
2024/03/04 03:58:20;;;;;;;43.25;23.45;;;;;;;;;;5086270;28;20539;-57
2024/03/04 04:00:45;;;;;;;52.40;25.70;;;;;;;;;;5073420;28;20027;-58
2024/03/04 04:03:12;;;;;;;50.72;24.15;;;;;;;;;;5078023;28;20029;-57
2024/03/04 04:05:38;;;;;;;45.78;23.50;;;;;;;;;;5076842;28;20791;-57
2024/03/04 04:08:04;;;;;;;51.13;24.65;;;;;;;;;;5080613;28;20017;-57
2024/03/04 04:10:30;;;;;;;52.15;24.92;;;;;;;;;;5071698;28;20028;-57
2024/03/04 04:12:56;;;;;;;47.90;23.13;;;;;;;;;;5088645;28;20468;-56
2024/03/04 04:15:22;;;;;;;48.30;24.70;;;;;;;;;;5073193;28;20438;-58
2024/03/04 04:17:48;;;;;;;50.45;24.65;;;;;;;;;;5080051;28;20052;-52
2024/03/04 04:20:14;;;;;;;46.67;23.67;;;;;;;;;;5075831;28;20024;-53
2024/03/04 04:22:40;;;;;;;43.70;23.45;;;;;;;;;;5073014;28;20390;-54
2024/03/04 04:25:06;;;;;;;46.92;23.23;;;;;;;;;;5086890;28;20025;-54
2024/03/04 04:27:32;;;;;;;46.25;21.83;;;;;;;;;;5087947;28;20094;-52
2024/03/04 04:29:58;;;;;;;44.70;22.50;;;;;;;;;;5076551;28;20110;-51
2024/03/04 04:32:27;;;;;;;46.10;22.95;;;;;;;;;;5075062;28;20029;-53
2024/03/04 04:34:53;;;;;;;47.65;22.98;;;;;;;;;;5074577;28;20055;-52
2024/03/04 04:37:19;;;;;;;50.42;23.77;;;;;;;;;;5072123;28;20091;-54
2024/03/04 04:39:44;;;;;;;52.47;24.25;;;;;;;;;;5081545;28;20032;-54
2024/03/04 04:42:10;;;;;;;47.03;24.52;;;;;;;;;;5084212;28;20071;-52
2024/03/04 04:44:36;;;;;;;42.22;23.23;;;;;;;;;;5081041;28;20040;-52
2024/03/04 04:47:03;;;;;;;47.58;23.88;;;;;;;;;;5071362;28;20032;-52
2024/03/04 04:49:29;;;;;;;45.15;23.58;;;;;;;;;;5071744;28;20024;-53
2024/03/04 04:51:55;;;;;;;44.97;23.98;;;;;;;;;;5072733;28;20034;-53
2024/03/04 04:54:21;;;;;;;50.65;24.23;;;;;;;;;;5075148;28;20028;-54
2024/03/04 04:56:48;;;;;;;46.92;22.85;;;;;;;;;;5076990;28;20028;-52
2024/03/04 04:59:15;;;;;;;55.58;23.88;;;;;;;;;;5082398;28;20032;-53
2024/03/04 05:01:41;;;;;;;47.28;24.65;;;;;;;;;;5083519;28;20036;-53
2024/03/04 05:04:07;;;;;;;51.58;25.13;;;;;;;;;;5072989;28;20028;-53
2024/03/04 05:06:34;;;;;;;45.75;24.10;;;;;;;;;;5079973;28;20161;-55
2024/03/04 05:09:00;;;;;;;52.80;25.42;;;;;;;;;;5079247;28;20032;-53
2024/03/04 05:11:27;;;;;;;50.25;26.00;;;;;;;;;;5084550;28;20069;-52
2024/03/04 05:13:53;;;;;;;57.35;28.35;;;;;;;;;;5077963;28;20028;-52
2024/03/04 05:16:19;;;;;;;55.15;27.10;;;;;;;;;;5081755;28;20543;-55
2024/03/04 05:18:45;;;;;;;53.78;26.73;;;;;;;;;;5090998;28;20059;-53
2024/03/04 05:21:12;;;;;;;50.85;27.08;;;;;;;;;;5094054;28;20028;-55
2024/03/04 05:23:39;;;;;;;62.53;30.15;;;;;;;;;;5095946;28;20020;-53
2024/03/04 05:26:05;;;;;;;58.95;29.48;;;;;;;;;;5097576;28;20557;-54
2024/03/04 05:28:31;;;;;;;59.42;29.63;;;;;;;;;;5102954;28;20031;-53
2024/03/04 05:30:57;;;;;;;67.15;30.70;;;;;;;;;;5093330;28;20035;-55
2024/03/04 05:33:23;;;;;;;65.50;32.65;;;;;;;;;;5089008;28;20074;-55
2024/03/04 05:35:49;;;;;;;56.25;29.60;;;;;;;;;;5102208;28;20490;-55
2024/03/04 05:38:15;;;;;;;60.08;29.73;;;;;;;;;;5097150;28;20034;-55
2024/03/04 05:40:41;;;;;;;69.53;31.15;;;;;;;;;;5100930;28;20395;-54
2024/03/04 05:43:07;;;;;;;55.20;29.85;;;;;;;;;;5102651;28;20035;-55
2024/03/04 05:45:33;;;;;;;63.55;30.42;;;;;;;;;;5096768;28;20024;-55
2024/03/04 05:47:59;;;;;;;60.33;30.00;;;;;;;;;;5098391;28;20391;-55
2024/03/04 05:50:26;;;;;;;65.93;30.80;;;;;;;;;;5098154;28;20034;-55
2024/03/04 05:52:52;;;;;;;57.88;29.77;;;;;;;;;;5089503;28;20086;-55
2024/03/04 05:55:19;;;;;;;63.53;30.17;;;;;;;;;;5097918;28;20032;-54
2024/03/04 05:57:45;;;;;;;64.15;30.27;;;;;;;;;;5091442;28;20417;-54
2024/03/04 06:00:14;;;;;;;62.15;29.92;;;;;;;;;;5094157;28;20078;-55
2024/03/04 06:02:40;;;;;;;66.35;29.92;;;;;;;;;;5092414;28;20486;-55
2024/03/04 06:05:07;;;;;;;68.63;32.05;;;;;;;;;;5090440;28;20032;-55
2024/03/04 06:07:33;;;;;;;63.30;30.35;;;;;;;;;;5092191;28;20448;-55
2024/03/04 06:09:59;;;;;;;69.82;32.03;;;;;;;;;;5088902;28;20062;-54
2024/03/04 06:12:25;;;;;;;69.13;31.65;;;;;;;;;;5088712;28;20032;-54
2024/03/04 06:14:50;;;;;;;68.10;32.45;;;;;;;;;;5090948;28;20059;-53
2024/03/04 06:17:16;;;;;;;69.35;31.95;;;;;;;;;;5087291;28;20041;-55
2024/03/04 06:19:42;;;;;;;65.90;32.63;;;;;;;;;;5079634;28;20131;-54
2024/03/04 06:22:08;;;;;;;65.20;31.98;;;;;;;;;;5073848;28;20025;-54
2024/03/04 06:24:34;;;;;;;62.28;32.38;;;;;;;;;;5072827;28;20042;-54
2024/03/04 06:27:03;;;;;;;65.75;31.92;;;;;;;;;;5072949;28;20024;-55
2024/03/04 06:29:35;;;;;;;72.45;35.33;;;;;;;;;;5072283;28;20051;-54
2024/03/04 06:32:01;;;;;;;65.03;33.92;;;;;;;;;;5070315;28;20029;-55
2024/03/04 06:34:29;;;;;;;66.30;33.83;;;;;;;;;;5082599;28;20111;-54
2024/03/04 06:36:54;;;;;;;73.22;35.70;;;;;;;;;;5081157;28;20037;-54
2024/03/04 06:39:20;;;;;;;68.55;33.80;;;;;;;;;;5069695;28;20028;-56
2024/03/04 06:41:50;;;;;;;73.65;33.55;;;;;;;;;;5073124;28;20117;-58
2024/03/04 06:44:16;;;;;;;63.80;33.08;;;;;;;;;;5064900;28;20487;-57
2024/03/04 06:46:42;;;;;;;67.82;32.75;;;;;;;;;;5070426;28;20108;-58
2024/03/04 06:49:09;;;;;;;63.47;32.17;;;;;;;;;;5074938;28;20016;-58
2024/03/04 06:51:35;;;;;;;67.10;33.55;;;;;;;;;;5080495;28;20036;-58
2024/03/04 06:54:02;;;;;;;64.60;32.40;;;;;;;;;;5074462;28;20579;-58
2024/03/04 06:56:28;;;;;;;67.13;33.15;;;;;;;;;;5080168;28;20113;-58
2024/03/04 06:58:54;;;;;;;65.50;32.47;;;;;;;;;;5074503;28;20032;-58
2024/03/04 07:01:20;;;;;;;69.85;33.63;;;;;;;;;;5071802;28;20032;-58
2024/03/04 07:03:46;;;;;;;68.72;33.35;;;;;;;;;;5071547;28;20497;-57
2024/03/04 07:06:13;;;;;;;69.28;34.38;;;;;;;;;;5069229;28;20074;-58
2024/03/04 07:08:40;;;;;;;71.20;35.15;;;;;;;;;;5071968;28;20104;-58
2024/03/04 07:11:06;;;;;;;68.05;33.67;;;;;;;;;;5072144;28;20020;-58
2024/03/04 07:13:32;;;;;;;65.30;33.78;;;;;;;;;;5070997;28;20032;-58
2024/03/04 07:15:58;;;;;;;76.20;36.20;;;;;;;;;;5058525;28;20020;-57
2024/03/04 07:18:26;;;;;;;71.82;36.45;;;;;;;;;;5077897;28;20064;-58
2024/03/04 07:20:52;;;;;;;65.15;34.40;;;;;;;;;;5091641;28;20032;-57
2024/03/04 07:23:18;;;;;;;69.95;35.97;;;;;;;;;;5090234;28;20027;-58
2024/03/04 07:25:44;;;;;;;65.57;35.17;;;;;;;;;;5072580;28;20450;-58
2024/03/04 07:28:10;;;;;;;72.30;35.40;;;;;;;;;;5071711;28;20024;-58
2024/03/04 07:30:36;;;;;;;82.57;37.72;;;;;;;;;;5073986;28;20040;-58
2024/03/04 07:33:02;;;;;;;74.68;35.40;;;;;;;;;;5075019;28;20034;-58
2024/03/04 07:35:28;;;;;;;68.95;36.78;;;;;;;;;;5079328;28;20027;-58
2024/03/04 07:37:54;;;;;;;72.95;36.83;;;;;;;;;;5088922;28;20024;-57
2024/03/04 07:40:20;;;;;;;74.18;35.78;;;;;;;;;;5071221;28;20036;-58
2024/03/04 07:42:46;;;;;;;75.88;38.47;;;;;;;;;;5076162;28;20029;-58
2024/03/04 07:45:12;;;;;;;77.47;38.38;;;;;;;;;;5088318;28;20047;-57
2024/03/04 07:47:38;;;;;;;77.03;37.80;;;;;;;;;;5078326;28;20021;-56
2024/03/04 07:50:04;;;;;;;73.20;36.83;;;;;;;;;;5084552;28;20024;-58
2024/03/04 07:52:30;;;;;;;76.53;38.22;;;;;;;;;;5080650;28;20056;-57
2024/03/04 07:54:56;;;;;;;76.22;39.00;;;;;;;;;;5080991;28;20087;-56
2024/03/04 07:57:22;;;;;;;84.43;41.22;;;;;;;;;;5079290;28;20104;-58
2024/03/04 07:59:48;;;;;;;77.57;39.50;;;;;;;;;;5086241;28;20404;-57
2024/03/04 08:02:14;;;;;;;76.38;38.63;;;;;;;;;;5071921;28;20028;-57
2024/03/04 08:04:45;;;;;;;82.07;39.30;;;;;;;;;;5081716;28;20024;-57
2024/03/04 08:07:12;;;;;;;84.30;40.30;;;;;;;;;;5069475;28;20028;-57
2024/03/04 08:09:39;;;;;;;80.57;38.20;;;;;;;;;;5078998;28;20054;-56
2024/03/04 08:12:06;;;;;;;77.38;38.50;;;;;;;;;;5075862;28;20028;-57
2024/03/04 08:14:32;;;;;;;81.82;37.80;;;;;;;;;;5079606;28;20028;-57
2024/03/04 08:16:58;;;;;;;77.75;38.88;;;;;;;;;;5080361;28;20040;-58
2024/03/04 08:19:24;;;;;;;76.28;36.50;;;;;;;;;;5088060;28;20043;-57
2024/03/04 08:21:50;;;;;;;68.03;34.75;;;;;;;;;;5093211;28;20037;-57
2024/03/04 08:24:16;;;;;;;73.80;35.65;;;;;;;;;;5085045;28;20017;-57
2024/03/04 08:26:42;;;;;;;67.05;33.78;;;;;;;;;;5077776;28;20078;-58
2024/03/04 08:29:08;;;;;;;64.43;32.80;;;;;;;;;;5090838;28;20020;-59
2024/03/04 08:31:36;;;;;;;59.83;32.55;;;;;;;;;;5106125;28;20031;-57
2024/03/04 08:34:04;;;;;;;67.95;32.90;;;;;;;;;;5101527;28;20035;-58
2024/03/04 08:36:30;;;;;;;56.85;31.35;;;;;;;;;;5109219;28;20039;-58
2024/03/04 08:38:56;;;;;;;57.78;30.90;;;;;;;;;;5093184;28;20161;-58
2024/03/04 08:41:24;;;;;;;66.28;32.35;;;;;;;;;;5092673;28;20471;-58
2024/03/04 08:43:50;;;;;;;61.45;33.15;;;;;;;;;;5093159;28;20028;-57
2024/03/04 08:46:16;;;;;;;67.40;31.63;;;;;;;;;;5098763;28;20494;-55
2024/03/04 08:48:42;;;;;;;58.88;30.40;;;;;;;;;;5086152;28;20028;-59
2024/03/04 08:51:09;;;;;;;54.85;29.33;;;;;;;;;;5094657;28;20035;-59
2024/03/04 08:53:35;;;;;;;59.10;30.42;;;;;;;;;;5089956;28;20468;-58
2024/03/04 08:56:01;;;;;;;53.25;27.65;;;;;;;;;;5089532;28;20089;-58
2024/03/04 08:58:27;;;;;;;54.15;28.05;;;;;;;;;;5094777;28;20083;-59
2024/03/04 09:00:53;;;;;;;52.40;27.45;;;;;;;;;;5103793;28;20471;-59
2024/03/04 09:03:19;;;;;;;57.72;28.95;;;;;;;;;;5094680;28;20047;-59
2024/03/04 09:05:45;;;;;;;54.35;28.77;;;;;;;;;;5090542;28;20480;-59
2024/03/04 09:08:11;;;;;;;56.33;28.42;;;;;;;;;;5090226;28;20020;-59
2024/03/04 09:10:37;;;;;;;53.70;28.05;;;;;;;;;;5077357;28;20032;-59
2024/03/04 09:13:04;;;;;;;48.97;26.33;;;;;;;;;;5088173;28;20028;-58
2024/03/04 09:15:30;;;;;;;51.25;26.05;;;;;;;;;;5104978;28;20035;-58
2024/03/04 09:17:56;;;;;;;45.70;25.05;;;;;;;;;;5109709;28;20059;-59
2024/03/04 09:20:22;;;;;;;48.70;26.95;;;;;;;;;;5096055;28;20096;-59
2024/03/04 09:22:48;;;;;;;44.83;25.38;;;;;;;;;;5102290;28;20526;-59
2024/03/04 09:25:14;;;;;;;50.45;25.05;;;;;;;;;;5096678;28;20054;-59
2024/03/04 09:27:46;;;;;;;48.33;26.10;;;;;;;;;;5093381;28;20096;-59
2024/03/04 09:30:12;;;;;;;47.83;25.48;;;;;;;;;;5089805;28;20099;-57
2024/03/04 09:32:38;;;;;;;49.17;25.55;;;;;;;;;;5093234;28;20058;-59
2024/03/04 09:35:05;;;;;;;49.05;25.83;;;;;;;;;;5093260;28;20049;-57
2024/03/04 09:37:31;;;;;;;46.67;25.83;;;;;;;;;;5093372;28;20032;-59
2024/03/04 09:39:57;;;;;;;49.00;26.90;;;;;;;;;;5093351;28;20383;-59
2024/03/04 09:42:30;;;;;;;51.83;27.20;;;;;;;;;;5092405;28;20467;-59
2024/03/04 09:44:57;;;;;;;50.00;26.30;;;;;;;;;;5104978;28;20032;-59
2024/03/04 09:47:23;;;;;;;53.38;25.73;;;;;;;;;;5099525;28;20069;-59
2024/03/04 09:49:52;;;;;;;51.53;27.13;;;;;;;;;;5093603;28;20028;-59
2024/03/04 09:52:19;;;;;;;44.28;23.05;;;;;;;;;;5102352;28;20111;-59
2024/03/04 09:54:46;;;;;;;46.70;24.45;;;;;;;;;;5093339;28;20024;-59
2024/03/04 09:57:12;;;;;;;48.13;24.85;;;;;;;;;;5099511;28;20387;-58
2024/03/04 09:59:39;;;;;;;43.97;22.95;;;;;;;;;;5070744;28;20032;-59
2024/03/04 10:02:10;;;;;;;43.97;25.10;;;;;;;;;;5087765;28;20039;-59
2024/03/04 10:04:39;;;;;;;45.17;24.25;;;;;;;;;;5082079;28;20115;-59
2024/03/04 10:07:05;;;;;;;41.53;22.92;;;;;;;;;;5092770;28;20024;-57
2024/03/04 10:09:31;;;;;;;44.40;23.60;;;;;;;;;;5096121;28;20458;-59
2024/03/04 10:11:58;;;;;;;45.05;24.02;;;;;;;;;;5093257;28;20134;-59
2024/03/04 10:14:24;;;;;;;43.38;23.60;;;;;;;;;;5092640;28;20027;-58
2024/03/04 10:16:51;;;;;;;47.13;23.92;;;;;;;;;;5092749;28;20767;-59
2024/03/04 10:19:20;;;;;;;40.95;22.30;;;;;;;;;;5092550;28;20082;-59
2024/03/04 10:21:46;;;;;;;44.28;23.35;;;;;;;;;;5103121;28;20544;-58
2024/03/04 10:24:13;;;;;;;36.78;22.42;;;;;;;;;;5093818;28;20078;-59
2024/03/04 10:26:40;;;;;;;37.88;22.63;;;;;;;;;;5092143;28;20464;-60
2024/03/04 10:29:06;;;;;;;41.00;21.98;;;;;;;;;;5098480;28;20028;-57
2024/03/04 10:31:36;;;;;;;37.38;21.45;;;;;;;;;;5094481;28;20107;-60
2024/03/04 10:34:02;;;;;;;34.90;20.95;;;;;;;;;;5100997;28;20115;-59
2024/03/04 10:36:31;;;;;;;38.42;20.73;;;;;;;;;;5093764;28;20028;-59
2024/03/04 10:38:57;;;;;;;37.40;20.55;;;;;;;;;;5092002;28;20035;-57
2024/03/04 10:41:23;;;;;;;38.67;20.35;;;;;;;;;;5094504;28;20373;-59
2024/03/04 10:43:53;;;;;;;38.08;21.30;;;;;;;;;;5097340;28;20024;-59
2024/03/04 10:46:19;;;;;;;38.22;21.13;;;;;;;;;;5092192;28;20059;-60
2024/03/04 10:48:48;;;;;;;37.17;20.55;;;;;;;;;;5092252;28;20024;-59
2024/03/04 10:51:18;;;;;;;34.60;20.75;;;;;;;;;;5097778;28;20468;-57
2024/03/04 10:53:44;;;;;;;39.55;21.05;;;;;;;;;;5092110;28;20024;-59
2024/03/04 10:56:15;;;;;;;42.47;22.17;;;;;;;;;;5092224;28;20035;-59
2024/03/04 10:58:44;;;;;;;37.88;20.05;;;;;;;;;;5096081;28;20024;-59
2024/03/04 11:01:17;;;;;;;37.08;21.30;;;;;;;;;;5093920;28;20032;-59
2024/03/04 11:03:46;;;;;;;39.28;21.08;;;;;;;;;;5077123;28;20537;-59
2024/03/04 11:06:15;;;;;;;37.38;20.08;;;;;;;;;;5091753;28;20024;-59
2024/03/04 11:08:48;;;;;;;38.55;20.92;;;;;;;;;;5091944;28;20051;-59
2024/03/04 11:11:15;;;;;;;33.45;19.92;;;;;;;;;;5099553;28;20407;-59
2024/03/04 11:13:44;;;;;;;37.72;21.30;;;;;;;;;;5084578;28;20032;-58
2024/03/04 11:16:10;;;;;;;37.83;21.50;;;;;;;;;;5092467;28;20787;-59
2024/03/04 11:18:55;;;;;;;34.20;19.73;;;;;;;;;;5091763;28;20056;-60
2024/03/04 11:21:22;;;;;;;37.75;20.63;;;;;;;;;;5091838;28;20035;-59
2024/03/04 11:23:50;;;;;;;34.70;20.15;;;;;;;;;;5073121;28;20025;-60
2024/03/04 11:26:17;;;;;;;37.08;20.77;;;;;;;;;;5091845;28;20032;-60
2024/03/04 11:28:44;;;;;;;34.97;20.73;;;;;;;;;;5094496;28;20690;-60
2024/03/04 11:31:11;;;;;;;36.17;20.48;;;;;;;;;;5091195;28;20539;-60
2024/03/04 11:33:40;;;;;;;30.20;18.90;;;;;;;;;;5089074;28;20161;-57
2024/03/04 11:36:10;;;;;;;28.45;18.77;;;;;;;;;;5089190;28;20059;-60
2024/03/04 11:38:44;;;;;;;32.15;18.70;;;;;;;;;;5091343;28;20052;-60
2024/03/04 11:41:10;;;;;;;34.25;20.10;;;;;;;;;;5090875;28;20104;-60
2024/03/04 11:43:42;;;;;;;33.35;20.00;;;;;;;;;;5097918;28;20176;-60
2024/03/04 11:46:12;;;;;;;32.90;19.57;;;;;;;;;;5091901;28;20384;-60
2024/03/04 11:48:39;;;;;;;34.45;19.30;;;;;;;;;;5091172;28;20269;-60
2024/03/04 11:51:05;;;;;;;33.22;19.63;;;;;;;;;;5092628;28;20107;-60
2024/03/04 11:53:31;;;;;;;32.88;19.58;;;;;;;;;;5072544;28;20039;-60
2024/03/04 11:55:57;;;;;;;35.20;20.25;;;;;;;;;;5091033;28;20031;-59
2024/03/04 11:58:24;;;;;;;35.83;19.63;;;;;;;;;;5093910;28;20168;-60
2024/03/04 12:00:50;;;;;;;32.33;19.00;;;;;;;;;;5090629;28;20039;-60
2024/03/04 12:03:16;;;;;;;33.33;20.88;;;;;;;;;;5095493;28;20518;-59
2024/03/04 12:05:44;;;;;;;32.40;20.48;;;;;;;;;;5091026;28;20024;-60
2024/03/04 12:08:11;;;;;;;33.08;20.15;;;;;;;;;;5092498;28;20102;-60
2024/03/04 12:10:37;;;;;;;41.20;22.02;;;;;;;;;;5091810;28;20063;-60
2024/03/04 12:13:03;;;;;;;34.45;20.80;;;;;;;;;;5098225;28;20062;-59
2024/03/04 12:15:29;;;;;;;32.25;19.67;;;;;;;;;;5095313;28;20027;-60
2024/03/04 12:17:56;;;;;;;32.38;18.65;;;;;;;;;;5097120;28;20059;-60
2024/03/04 12:20:24;;;;;;;35.08;21.63;;;;;;;;;;5094843;28;20040;-60
2024/03/04 12:22:53;;;;;;;31.75;21.10;;;;;;;;;;5090501;28;20028;-60
2024/03/04 12:25:25;;;;;;;32.67;18.80;;;;;;;;;;5090665;28;20013;-60
2024/03/04 12:27:53;;;;;;;37.33;19.60;;;;;;;;;;5091087;28;20373;-60
2024/03/04 12:30:19;;;;;;;38.13;20.20;;;;;;;;;;5100032;28;20115;-60
2024/03/04 12:32:50;;;;;;;33.17;19.65;;;;;;;;;;5094594;28;20102;-60
2024/03/04 12:35:19;;;;;;;35.03;20.30;;;;;;;;;;5092641;28;20031;-60
2024/03/04 12:37:49;;;;;;;33.13;20.38;;;;;;;;;;5090459;28;20107;-60
2024/03/04 12:40:19;;;;;;;33.88;19.30;;;;;;;;;;5090982;28;20032;-60
2024/03/04 12:42:46;;;;;;;30.83;19.38;;;;;;;;;;5090590;28;20103;-60
2024/03/04 12:45:12;;;;;;;32.15;20.48;;;;;;;;;;5090481;28;20450;-62
2024/03/04 12:47:38;;;;;;;32.20;19.80;;;;;;;;;;5096066;28;20074;-60
2024/03/04 12:50:08;;;;;;;31.70;18.67;;;;;;;;;;5096057;28;20036;-60
2024/03/04 12:52:35;;;;;;;35.60;19.58;;;;;;;;;;5087084;28;20488;-60
2024/03/04 12:55:01;;;;;;;38.45;20.70;;;;;;;;;;5087649;28;20035;-60
2024/03/04 12:57:27;;;;;;;28.55;18.48;;;;;;;;;;5090162;28;20085;-60
2024/03/04 12:59:56;;;;;;;31.10;18.33;;;;;;;;;;5090503;28;20471;-60
2024/03/04 13:02:22;;;;;;;30.75;19.80;;;;;;;;;;5090028;28;20481;-60
2024/03/04 13:04:50;;;;;;;30.85;18.98;;;;;;;;;;5090030;28;20035;-60
2024/03/04 13:07:16;;;;;;;29.85;20.45;;;;;;;;;;5090297;28;20028;-60
2024/03/04 13:09:42;;;;;;;34.25;19.02;;;;;;;;;;5090241;28;20024;-60
2024/03/04 13:12:09;;;;;;;28.00;19.00;;;;;;;;;;5089930;28;20089;-60
2024/03/04 13:14:35;;;;;;;32.05;19.65;;;;;;;;;;5096528;28;20458;-60
2024/03/04 13:17:01;;;;;;;30.80;19.40;;;;;;;;;;5093927;28;20056;-60
2024/03/04 13:19:27;;;;;;;32.30;20.05;;;;;;;;;;5102641;28;20024;-60
2024/03/04 13:21:55;;;;;;;27.80;18.65;;;;;;;;;;5102716;28;20027;-60
2024/03/04 13:24:21;;;;;;;26.17;17.80;;;;;;;;;;5093709;28;20426;-60
2024/03/04 13:26:47;;;;;;;27.45;18.48;;;;;;;;;;5089159;28;20043;-60
2024/03/04 13:29:13;;;;;;;27.67;17.65;;;;;;;;;;5093417;28;20044;-60
2024/03/04 13:31:39;;;;;;;28.08;18.38;;;;;;;;;;5094418;28;20035;-60
2024/03/04 13:34:05;;;;;;;34.17;19.90;;;;;;;;;;5093160;28;20027;-60
2024/03/04 13:36:31;;;;;;;32.70;19.45;;;;;;;;;;5099842;28;20035;-60
2024/03/04 13:38:57;;;;;;;31.88;18.42;;;;;;;;;;5091375;28;20173;-58
2024/03/04 13:41:23;;;;;;;28.83;18.45;;;;;;;;;;5093333;28;20071;-58
2024/03/04 13:43:49;;;;;;;28.15;19.02;;;;;;;;;;5093104;28;20024;-56
2024/03/04 13:46:15;;;;;;;33.22;19.13;;;;;;;;;;5094129;28;20039;-58
2024/03/04 13:48:41;;;;;;;29.67;19.10;;;;;;;;;;5081676;28;20024;-58
2024/03/04 13:51:06;;;;;;;27.35;17.73;;;;;;;;;;5102235;28;20028;-58
2024/03/04 13:53:32;;;;;;;31.45;19.33;;;;;;;;;;5095252;28;20031;-58
2024/03/04 13:55:58;;;;;;;29.85;19.52;;;;;;;;;;5097109;28;20490;-58
2024/03/04 13:58:24;;;;;;;30.92;19.38;;;;;;;;;;5093409;28;20028;-58
2024/03/04 14:00:50;;;;;;;32.03;19.40;;;;;;;;;;5101592;28;20031;-57
2024/03/04 14:03:16;;;;;;;30.73;19.65;;;;;;;;;;5093049;28;20044;-57
2024/03/04 14:05:42;;;;;;;34.15;21.30;;;;;;;;;;5094558;28;20024;-56
2024/03/04 14:08:08;;;;;;;30.67;20.05;;;;;;;;;;5084321;28;20016;-57
2024/03/04 14:10:37;;;;;;;32.70;19.88;;;;;;;;;;5088691;28;20035;-58
2024/03/04 14:13:03;;;;;;;31.27;19.42;;;;;;;;;;5101624;28;20485;-58